Time;durP1;ratioP1;P1;durP2;ratioP2;P2;SDS_P1;SDS_P2;PMS_P1;PMS_P2;Temp;Humidity;BMP_temperature;BMP_pressure;BME280_temperature;BME280_humidity;BME280_pressure;Samples;Min_cycle;Max_cycle;Signal;HPM_P1;HPM_P2
2023/10/04 00:00:15;;;;;;;;;;;13.70;99.90;;;;;;5058958;28;19936;-64
2023/10/04 00:02:49;;;;;;;;;;;13.70;99.90;;;;;;5056910;28;19909;-64
2023/10/04 00:05:16;;;;;;;;;;;13.60;99.90;;;;;;5057168;28;19923;-64
2023/10/04 00:07:46;;;;;;;;;;;13.70;99.90;;;;;;5056914;28;19927;-64
2023/10/04 00:10:13;;;;;;;;;;;13.60;99.90;;;;;;5038733;28;19909;-63
2023/10/04 00:12:39;;;;;;;;;;;13.60;99.90;;;;;;5056918;28;19904;-64
2023/10/04 00:15:14;;;;;;;;;;;13.50;99.90;;;;;;5056973;28;19909;-64
2023/10/04 00:17:44;;;;;;;;;;;13.50;99.90;;;;;;5056634;28;19967;-64
2023/10/04 00:20:12;;;;;;;;;;;13.50;99.90;;;;;;5056866;28;19944;-64
2023/10/04 00:22:40;;;;;;;;;;;13.40;99.90;;;;;;5056786;28;19909;-64
2023/10/04 00:25:12;;;;;;;;;;;13.40;99.90;;;;;;5056488;28;19909;-63
2023/10/04 00:27:40;;;;;;;;;;;13.50;99.90;;;;;;5056741;28;19909;-64
2023/10/04 00:30:10;;;;;;;;;;;13.50;99.90;;;;;;5056943;28;19923;-64
2023/10/04 00:32:36;;;;;;;;;;;13.40;99.90;;;;;;5056313;28;20128;-64
2023/10/04 00:35:03;;;;;;;;;;;13.50;99.90;;;;;;5056558;28;19948;-64
2023/10/04 00:37:31;;;;;;;;;;;13.40;99.90;;;;;;5056571;28;19912;-64
2023/10/04 00:39:58;;;;;;;;;;;13.30;99.90;;;;;;5056342;28;19920;-64
2023/10/04 00:42:26;;;;;;;;;;;13.30;99.90;;;;;;5056686;28;19923;-64
2023/10/04 00:44:52;;;;;;;;;;;13.30;99.90;;;;;;5056357;28;19905;-64
2023/10/04 00:47:18;;;;;;;;;;;13.20;99.90;;;;;;5056057;28;19916;-63
2023/10/04 00:49:45;;;;;;;;;;;13.20;99.90;;;;;;5056361;28;19905;-63
2023/10/04 00:52:12;;;;;;;;;;;13.20;99.90;;;;;;5056404;28;19958;-64
2023/10/04 00:54:39;;;;;;;;;;;13.20;99.90;;;;;;5055824;28;19908;-64
2023/10/04 00:57:05;;;;;;;;;;;13.20;99.90;;;;;;5038091;28;19912;-64
2023/10/04 00:59:31;;;;;;;;;;;13.10;99.90;;;;;;5069932;28;19909;-64
2023/10/04 01:01:57;;;;;;;;;;;13.20;99.90;;;;;;5074539;28;19919;-64
2023/10/04 01:04:25;;;;;;;;;;;13.10;99.90;;;;;;5076056;28;19915;-64
2023/10/04 01:06:51;;;;;;;;;;;13.10;99.90;;;;;;5075977;28;20281;-64
2023/10/04 01:09:19;;;;;;;;;;;13.10;99.90;;;;;;5076034;28;19912;-64
2023/10/04 01:11:46;;;;;;;;;;;13.10;99.90;;;;;;5075947;28;19904;-64
2023/10/04 01:14:26;;;;;;;;;;;13.20;99.90;;;;;;5075894;28;19944;-64
2023/10/04 01:16:52;;;;;;;;;;;13.20;99.90;;;;;;5075889;28;19908;-64
2023/10/04 01:19:20;;;;;;;;;;;13.30;99.90;;;;;;5075860;28;19915;-64
2023/10/04 01:21:46;;;;;;;;;;;13.40;99.90;;;;;;5074317;28;19908;-64
2023/10/04 01:24:12;;;;;;;;;;;13.40;99.90;;;;;;5075745;28;19908;-64
2023/10/04 01:26:39;;;;;;;;;;;13.40;99.90;;;;;;5076161;28;19923;-64
2023/10/04 01:29:11;;;;;;;;;;;13.40;99.90;;;;;;5074446;28;19916;-63
2023/10/04 01:31:40;;;;;;;;;;;13.30;99.90;;;;;;5075604;28;19995;-64
2023/10/04 01:34:13;;;;;;;;;;;13.30;99.90;;;;;;5075785;28;19904;-63
2023/10/04 01:36:39;;;;;;;;;;;13.30;99.90;;;;;;5075560;28;19975;-64
2023/10/04 01:39:08;;;;;;;;;;;13.30;99.90;;;;;;5075527;28;20369;-64
2023/10/04 01:41:37;;;;;;;;;;;13.30;99.90;;;;;;5075675;28;19909;-64
2023/10/04 01:44:04;;;;;;;;;;;13.30;99.90;;;;;;5075644;28;20401;-64
2023/10/04 01:46:30;;;;;;;;;;;13.30;99.90;;;;;;5057405;28;19994;-64
2023/10/04 01:48:56;;;;;;;;;;;13.40;99.90;;;;;;5075639;28;19943;-63
2023/10/04 01:51:22;;;;;;;;;;;13.40;99.90;;;;;;5074618;28;19908;-63
2023/10/04 01:53:50;;;;;;;;;;;13.40;99.90;;;;;;5075587;28;20284;-63
2023/10/04 01:56:17;;;;;;;;;;;13.40;99.90;;;;;;5075211;28;19935;-64
2023/10/04 01:58:43;;;;;;;;;;;13.40;99.90;;;;;;5066832;28;19913;-64
2023/10/04 02:01:09;;;;;;;;;;;13.40;99.90;;;;;;5056797;28;19908;-64
2023/10/04 02:03:35;;;;;;;;;;;13.30;99.90;;;;;;5041415;28;19976;-64
2023/10/04 02:06:01;;;;;;;;;;;13.30;99.90;;;;;;5059142;28;20266;-63
2023/10/04 02:08:28;;;;;;;;;;;13.30;99.90;;;;;;5059046;28;19917;-63
2023/10/04 02:10:54;;;;;;;;;;;13.20;99.90;;;;;;5059324;28;19904;-63
2023/10/04 02:13:20;;;;;;;;;;;13.20;99.90;;;;;;5059035;28;20362;-64
2023/10/04 02:15:50;;;;;;;;;;;13.30;99.90;;;;;;5059107;28;19920;-63
2023/10/04 02:18:16;;;;;;;;;;;13.30;99.90;;;;;;5059138;28;19913;-64
2023/10/04 02:20:47;;;;;;;;;;;13.20;99.90;;;;;;5059132;28;19954;-64
2023/10/04 02:23:13;;;;;;;;;;;13.30;99.90;;;;;;5040997;28;19915;-64
2023/10/04 02:25:39;;;;;;;;;;;13.30;99.90;;;;;;5058824;28;20262;-63
2023/10/04 02:28:11;;;;;;;;;;;13.20;99.90;;;;;;5059113;28;20477;-63
2023/10/04 02:30:37;;;;;;;;;;;13.20;99.90;;;;;;5058765;28;20305;-63
2023/10/04 02:33:09;;;;;;;;;;;13.20;99.90;;;;;;5040936;28;19944;-63
2023/10/04 02:35:43;;;;;;;;;;;13.10;99.90;;;;;;5058779;28;20385;-64
2023/10/04 02:38:16;;;;;;;;;;;13.10;99.90;;;;;;5040793;28;20176;-64
2023/10/04 02:40:43;;;;;;;;;;;13.10;99.90;;;;;;5041067;28;19909;-64
2023/10/04 02:43:09;;;;;;;;;;;13.00;99.90;;;;;;5040643;28;19934;-64
2023/10/04 02:45:36;;;;;;;;;;;13.00;99.90;;;;;;5058401;28;19909;-64
2023/10/04 02:48:09;;;;;;;;;;;12.90;99.90;;;;;;5040765;28;19909;-64
2023/10/04 02:50:37;;;;;;;;;;;12.90;99.90;;;;;;5058657;28;19908;-64
2023/10/04 02:53:03;;;;;;;;;;;12.90;99.90;;;;;;5057117;28;19944;-64
2023/10/04 02:55:31;;;;;;;;;;;12.80;99.90;;;;;;5040327;28;19905;-64
2023/10/04 02:57:59;;;;;;;;;;;12.80;99.90;;;;;;5041391;28;19913;-64
2023/10/04 03:00:25;;;;;;;;;;;12.70;99.90;;;;;;5060323;28;19908;-64
2023/10/04 03:02:54;;;;;;;;;;;12.70;99.90;;;;;;5060299;28;19908;-64
2023/10/04 03:05:23;;;;;;;;;;;12.80;99.90;;;;;;5060330;28;19916;-64
2023/10/04 03:07:52;;;;;;;;;;;12.80;99.90;;;;;;5060030;28;20288;-64
2023/10/04 03:10:25;;;;;;;;;;;12.60;99.90;;;;;;5060211;28;19916;-64
2023/10/04 03:12:59;;;;;;;;;;;12.50;99.90;;;;;;5075494;28;19998;-64
2023/10/04 03:15:27;;;;;;;;;;;12.50;99.90;;;;;;5060035;28;19966;-64
2023/10/04 03:17:54;;;;;;;;;;;12.50;99.90;;;;;;5076854;28;19920;-63
2023/10/04 03:20:23;;;;;;;;;;;12.50;99.90;;;;;;5060042;28;19915;-64
2023/10/04 03:22:51;;;;;;;;;;;12.40;99.90;;;;;;5059750;28;19908;-64
2023/10/04 03:25:17;;;;;;;;;;;12.40;99.90;;;;;;5076603;28;20403;-64
2023/10/04 03:27:44;;;;;;;;;;;12.40;99.90;;;;;;5059831;28;19914;-64
2023/10/04 03:30:15;;;;;;;;;;;12.30;99.90;;;;;;5076351;28;20022;-64
2023/10/04 03:32:49;;;;;;;;;;;12.40;99.90;;;;;;5059862;28;19908;-64
2023/10/04 03:35:16;;;;;;;;;;;12.30;99.90;;;;;;5059584;28;19908;-64
2023/10/04 03:37:58;;;;;;;;;;;12.20;99.90;;;;;;5059326;28;19908;-63
2023/10/04 03:40:34;;;;;;;;;;;12.10;99.90;;;;;;5076512;28;20006;-64
2023/10/04 03:43:02;;;;;;;;;;;12.10;99.90;;;;;;5059302;28;19999;-63
2023/10/04 03:45:30;;;;;;;;;;;12.10;99.90;;;;;;5059766;28;19909;-64
2023/10/04 03:47:57;;;;;;;;;;;12.00;99.90;;;;;;5076263;28;19943;-64
2023/10/04 03:50:24;;;;;;;;;;;12.00;99.90;;;;;;5076058;28;20003;-64
2023/10/04 03:52:52;;;;;;;;;;;12.00;99.90;;;;;;5077459;28;19944;-64
2023/10/04 03:55:19;;;;;;;;;;;12.00;99.90;;;;;;5059351;28;19943;-63
2023/10/04 03:57:45;;;;;;;;;;;12.00;99.90;;;;;;5075630;28;19943;-64
2023/10/04 04:00:13;;;;;;;;;;;12.00;99.90;;;;;;5056335;28;19948;-64
2023/10/04 04:02:39;;;;;;;;;;;12.00;99.90;;;;;;5038976;28;19999;-64
2023/10/04 04:05:13;;;;;;;;;;;12.00;99.90;;;;;;5038978;28;20367;-64
2023/10/04 04:07:40;;;;;;;;;;;11.80;99.90;;;;;;5039060;28;19913;-64
2023/10/04 04:10:09;;;;;;;;;;;11.90;99.90;;;;;;5038976;28;19959;-64
2023/10/04 04:12:35;;;;;;;;;;;11.90;99.90;;;;;;5056584;28;19916;-64
2023/10/04 04:15:01;;;;;;;;;;;11.90;99.90;;;;;;5056954;28;19916;-63
2023/10/04 04:17:29;;;;;;;;;;;11.90;99.90;;;;;;5039021;28;19924;-64
2023/10/04 04:19:55;;;;;;;;;;;11.80;99.90;;;;;;5038704;28;19932;-64
2023/10/04 04:22:27;;;;;;;;;;;11.90;99.90;;;;;;5056781;28;19905;-64
2023/10/04 04:24:55;;;;;;;;;;;11.90;99.90;;;;;;5038391;28;19916;-64
2023/10/04 04:27:22;;;;;;;;;;;12.00;99.90;;;;;;5038469;28;19924;-64
2023/10/04 04:29:56;;;;;;;;;;;12.00;99.90;;;;;;5038761;28;20358;-64
2023/10/04 04:32:26;;;;;;;;;;;12.00;99.90;;;;;;5038928;28;19909;-63
2023/10/04 04:34:54;;;;;;;;;;;11.70;99.90;;;;;;5038548;28;20414;-64
2023/10/04 04:37:27;;;;;;;;;;;11.70;99.90;;;;;;5038406;28;19912;-63
2023/10/04 04:39:53;;;;;;;;;;;11.70;99.90;;;;;;5038660;28;19996;-63
2023/10/04 04:42:20;;;;;;;;;;;11.70;99.90;;;;;;5056175;28;19908;-64
2023/10/04 04:44:47;;;;;;;;;;;11.80;99.90;;;;;;5038399;28;19909;-64
2023/10/04 04:47:13;;;;;;;;;;;11.90;99.90;;;;;;5038429;28;19976;-64
2023/10/04 04:49:40;;;;;;;;;;;11.90;99.90;;;;;;5038308;28;19930;-63
2023/10/04 04:52:09;;;;;;;;;;;11.80;99.90;;;;;;5038423;28;20358;-64
2023/10/04 04:54:35;;;;;;;;;;;11.90;99.90;;;;;;5038141;28;20369;-63
2023/10/04 04:57:02;;;;;;;;;;;11.90;99.90;;;;;;5037951;28;19913;-63
2023/10/04 04:59:29;;;;;;;;;;;11.80;99.90;;;;;;5051640;28;19919;-63
2023/10/04 05:01:55;;;;;;;;;;;11.80;99.90;;;;;;5058103;28;19908;-63
2023/10/04 05:04:22;;;;;;;;;;;11.80;99.90;;;;;;5076149;28;19995;-63
2023/10/04 05:06:49;;;;;;;;;;;11.80;99.90;;;;;;5074516;28;19913;-63
2023/10/04 05:09:17;;;;;;;;;;;11.90;99.90;;;;;;5075973;28;19915;-63
2023/10/04 05:11:44;;;;;;;;;;;12.00;99.90;;;;;;5075744;28;19904;-63
2023/10/04 05:14:11;;;;;;;;;;;12.10;99.90;;;;;;5075877;28;19931;-63
2023/10/04 05:16:37;;;;;;;;;;;12.30;99.90;;;;;;5074584;28;19962;-63
2023/10/04 05:19:10;;;;;;;;;;;12.50;99.90;;;;;;5055376;28;19908;-63
2023/10/04 05:21:37;;;;;;;;;;;12.90;99.90;;;;;;5056388;28;19914;-64
2023/10/04 05:24:05;;;;;;;;;;;13.20;99.90;;;;;;5056275;28;19916;-64
2023/10/04 05:26:34;;;;;;;;;;;13.30;99.90;;;;;;5049519;28;19984;-64
2023/10/04 05:29:01;;;;;;;;;;;13.30;99.90;;;;;;5043796;28;19919;-64
2023/10/04 05:31:26;;;;;;;;;;;13.30;99.90;;;;;;5044718;28;19915;-63
2023/10/04 05:33:53;;;;;;;;;;;13.30;99.90;;;;;;5051754;28;20421;-64
2023/10/04 05:36:19;;;;;;;;;;;13.30;99.90;;;;;;5055189;28;19962;-64
2023/10/04 05:38:44;;;;;;;;;;;13.50;99.90;;;;;;5055473;28;19913;-64
2023/10/04 05:41:10;;;;;;;;;;;13.60;99.90;;;;;;5055283;28;19962;-64
2023/10/04 05:43:36;;;;;;;;;;;13.70;99.90;;;;;;5054354;28;19912;-63
2023/10/04 05:46:06;;;;;;;;;;;14.00;99.90;;;;;;5041831;28;19916;-64
2023/10/04 05:48:34;;;;;;;;;;;14.30;99.90;;;;;;5053406;28;19911;-64
2023/10/04 05:51:00;;;;;;;;;;;14.60;99.90;;;;;;5055029;28;19920;-64
2023/10/04 05:53:27;;;;;;;;;;;14.90;99.90;;;;;;5052907;28;20531;-64
2023/10/04 05:55:53;;;;;;;;;;;15.00;99.90;;;;;;5043604;28;19917;-64
2023/10/04 05:58:21;;;;;;;;;;;15.00;99.90;;;;;;5042901;28;19919;-64
2023/10/04 06:00:51;;;;;;;;;;;15.20;99.90;;;;;;5075333;28;19911;-64
2023/10/04 06:03:17;;;;;;;;;;;15.40;99.90;;;;;;5064045;28;20007;-64
2023/10/04 06:05:43;;;;;;;;;;;15.60;99.90;;;;;;5054986;28;19959;-64
2023/10/04 06:08:11;;;;;;;;;;;15.80;99.90;;;;;;5054166;28;20012;-64
2023/10/04 06:10:37;;;;;;;;;;;15.90;99.90;;;;;;5054294;28;19913;-64
2023/10/04 06:13:07;;;;;;;;;;;16.30;99.90;;;;;;5053708;28;19913;-64
2023/10/04 06:15:33;;;;;;;;;;;16.20;99.90;;;;;;5054977;28;19908;-64
2023/10/04 06:18:00;;;;;;;;;;;16.50;99.90;;;;;;5054290;28;20445;-64
2023/10/04 06:20:28;;;;;;;;;;;16.80;99.90;;;;;;5054638;28;19936;-64
2023/10/04 06:22:59;;;;;;;;;;;16.70;99.90;;;;;;5054623;28;19931;-64
2023/10/04 06:25:25;;;;;;;;;;;16.70;99.90;;;;;;5053920;28;20370;-64
2023/10/04 06:27:52;;;;;;;;;;;16.90;99.90;;;;;;5054505;28;19908;-64
2023/10/04 06:30:21;;;;;;;;;;;17.10;99.90;;;;;;5054806;28;19908;-64
2023/10/04 06:32:50;;;;;;;;;;;17.20;99.90;;;;;;5055012;28;19916;-64
2023/10/04 06:35:17;;;;;;;;;;;17.50;99.90;;;;;;5054455;28;19932;-64
2023/10/04 06:37:42;;;;;;;;;;;17.90;99.90;;;;;;5054664;28;19958;-64
2023/10/04 06:40:15;;;;;;;;;;;18.10;99.90;;;;;;5055010;28;19909;-64
2023/10/04 06:42:45;;;;;;;;;;;18.40;99.90;;;;;;5054765;28;19952;-64
2023/10/04 06:45:22;;;;;;;;;;;18.70;99.90;;;;;;5054873;28;19999;-64
2023/10/04 06:47:49;;;;;;;;;;;18.70;99.80;;;;;;5057079;28;19916;-64
2023/10/04 06:50:18;;;;;;;;;;;19.00;99.80;;;;;;5058701;28;19909;-64
2023/10/04 06:52:45;;;;;;;;;;;19.30;99.10;;;;;;5058384;28;19940;-64
2023/10/04 06:55:11;;;;;;;;;;;19.80;98.50;;;;;;5058098;28;20350;-64
2023/10/04 06:57:39;;;;;;;;;;;20.20;97.00;;;;;;5057924;28;19962;-64
2023/10/04 07:00:15;;;;;;;;;;;20.20;96.00;;;;;;5058121;28;19908;-64
2023/10/04 07:02:40;;;;;;;;;;;20.20;96.40;;;;;;5057923;28;19931;-64
2023/10/04 07:05:08;;;;;;;;;;;20.70;95.60;;;;;;5058268;28;19909;-64
2023/10/04 07:07:35;;;;;;;;;;;20.60;94.80;;;;;;5058219;28;19913;-64
2023/10/04 07:10:01;;;;;;;;;;;20.90;93.90;;;;;;5057796;28;19905;-64
2023/10/04 07:12:28;;;;;;;;;;;21.10;93.70;;;;;;5057954;28;19913;-64
2023/10/04 07:14:53;;;;;;;;;;;21.50;93.00;;;;;;5057850;28;19915;-64
2023/10/04 07:17:19;;;;;;;;;;;22.00;92.10;;;;;;5058174;28;19948;-64
2023/10/04 07:19:45;;;;;;;;;;;22.30;91.50;;;;;;5058152;28;19923;-65
2023/10/04 07:22:11;;;;;;;;;;;22.60;90.20;;;;;;5057798;28;19939;-64
2023/10/04 07:24:37;;;;;;;;;;;22.80;87.70;;;;;;5057884;28;19913;-64
2023/10/04 07:27:03;;;;;;;;;;;22.80;88.10;;;;;;5057757;28;19909;-65
2023/10/04 07:29:29;;;;;;;;;;;22.20;90.00;;;;;;5057627;28;20336;-65
2023/10/04 07:31:56;;;;;;;;;;;22.40;87.60;;;;;;5057632;28;19908;-65
2023/10/04 07:34:27;;;;;;;;;;;22.60;87.80;;;;;;5057506;28;19912;-65
2023/10/04 07:36:54;;;;;;;;;;;23.10;85.80;;;;;;5057356;28;20389;-65
2023/10/04 07:39:21;;;;;;;;;;;23.00;83.70;;;;;;5057648;28;20062;-65
2023/10/04 07:41:47;;;;;;;;;;;23.00;84.10;;;;;;5057473;28;19912;-65
2023/10/04 07:44:13;;;;;;;;;;;23.00;85.70;;;;;;5057095;28;19959;-65
2023/10/04 07:46:39;;;;;;;;;;;23.20;84.20;;;;;;5056617;28;19913;-65
2023/10/04 07:49:05;;;;;;;;;;;23.20;82.60;;;;;;5057370;28;19995;-65
2023/10/04 07:51:31;;;;;;;;;;;23.40;83.00;;;;;;5057039;28;19915;-65
2023/10/04 07:53:57;;;;;;;;;;;23.00;84.00;;;;;;5054430;28;20003;-66
2023/10/04 07:56:23;;;;;;;;;;;22.90;81.80;;;;;;5044579;28;19966;-65
2023/10/04 07:58:49;;;;;;;;;;;23.00;82.00;;;;;;5064077;28;20023;-65
2023/10/04 08:01:15;;;;;;;;;;;22.80;81.50;;;;;;5066618;28;19915;-65
2023/10/04 08:03:41;;;;;;;;;;;22.60;86.10;;;;;;5056701;28;20396;-66
2023/10/04 08:06:09;;;;;;;;;;;22.90;83.70;;;;;;5056968;28;20069;-65
2023/10/04 08:08:35;;;;;;;;;;;22.90;82.20;;;;;;5056658;28;19916;-66
2023/10/04 08:11:03;;;;;;;;;;;23.40;83.40;;;;;;5056332;28;19924;-66
2023/10/04 08:13:29;;;;;;;;;;;23.50;81.70;;;;;;5056528;28;20350;-66
2023/10/04 08:15:54;;;;;;;;;;;24.30;81.70;;;;;;5055486;28;19958;-66
2023/10/04 08:18:23;;;;;;;;;;;24.10;78.00;;;;;;5046842;28;19975;-66
2023/10/04 08:20:49;;;;;;;;;;;24.00;79.50;;;;;;5046312;28;19928;-65
2023/10/04 08:23:16;;;;;;;;;;;24.50;78.90;;;;;;5055995;28;19908;-66
2023/10/04 08:25:42;;;;;;;;;;;24.80;77.40;;;;;;5039855;28;19909;-66
2023/10/04 08:28:09;;;;;;;;;;;25.50;74.60;;;;;;5056427;28;19915;-66
2023/10/04 08:30:40;;;;;;;;;;;25.70;72.90;;;;;;5054748;28;20032;-66
2023/10/04 08:33:05;;;;;;;;;;;25.80;74.30;;;;;;5055301;28;19912;-66
2023/10/04 08:35:36;;;;;;;;;;;25.80;71.60;;;;;;5056504;28;19938;-66
2023/10/04 08:38:06;;;;;;;;;;;26.00;70.60;;;;;;5056264;28;19912;-66
2023/10/04 08:40:35;;;;;;;;;;;25.60;70.50;;;;;;5053979;28;20311;-66
2023/10/04 08:43:01;;;;;;;;;;;25.70;71.40;;;;;;5040184;28;19913;-65
2023/10/04 08:45:29;;;;;;;;;;;25.00;72.50;;;;;;5038025;28;19912;-66
2023/10/04 08:47:56;;;;;;;;;;;25.20;73.10;;;;;;5056013;28;20305;-66
2023/10/04 08:50:44;;;;;;;;;;;25.50;74.50;;;;;;5055940;28;19912;-66
2023/10/04 08:53:10;;;;;;;;;;;26.20;72.70;;;;;;5056208;28;19909;-66
2023/10/04 08:55:42;;;;;;;;;;;27.00;68.30;;;;;;5056240;28;19911;-66
2023/10/04 08:58:09;;;;;;;;;;;27.50;64.10;;;;;;5055776;28;19916;-66
2023/10/04 09:00:39;;;;;;;;;;;27.70;64.60;;;;;;5055799;28;19909;-66
2023/10/04 09:03:04;;;;;;;;;;;27.80;61.30;;;;;;5055632;28;19908;-66
2023/10/04 09:05:33;;;;;;;;;;;28.10;60.40;;;;;;5055811;28;19943;-66
2023/10/04 09:08:04;;;;;;;;;;;28.00;58.60;;;;;;5055735;28;19999;-66
2023/10/04 09:10:32;;;;;;;;;;;28.30;57.70;;;;;;5054911;28;19908;-66
2023/10/04 09:12:58;;;;;;;;;;;28.50;55.00;;;;;;5055557;28;19905;-66
2023/10/04 09:15:24;;;;;;;;;;;27.50;50.10;;;;;;5055870;28;19909;-66
2023/10/04 09:17:57;;;;;;;;;;;27.70;52.20;;;;;;5055784;28;19913;-66
2023/10/04 09:20:24;;;;;;;;;;;28.10;47.70;;;;;;5056367;28;19951;-66
2023/10/04 09:22:50;;;;;;;;;;;28.90;46.80;;;;;;5056304;28;19909;-66
2023/10/04 09:25:16;;;;;;;;;;;28.50;44.20;;;;;;5056151;28;20046;-66
2023/10/04 09:27:57;;;;;;;;;;;29.30;42.70;;;;;;5055755;28;19944;-66
2023/10/04 09:30:26;;;;;;;;;;;29.30;42.40;;;;;;5055571;28;19909;-66
2023/10/04 09:32:52;;;;;;;;;;;28.90;42.20;;;;;;5055519;28;19908;-66
2023/10/04 09:35:18;;;;;;;;;;;29.50;41.00;;;;;;5055654;28;20003;-66
2023/10/04 09:37:45;;;;;;;;;;;30.10;40.80;;;;;;5055397;28;19917;-67
2023/10/04 09:40:12;;;;;;;;;;;30.30;39.80;;;;;;5055452;28;20247;-66
2023/10/04 09:42:49;;;;;;;;;;;29.80;38.70;;;;;;5054411;28;19913;-67
2023/10/04 09:45:15;;;;;;;;;;;30.60;40.00;;;;;;5055612;28;19909;-67
2023/10/04 09:47:42;;;;;;;;;;;30.30;37.90;;;;;;5055299;28;19909;-66
2023/10/04 09:50:12;;;;;;;;;;;30.40;39.20;;;;;;5055355;28;20022;-66
2023/10/04 09:52:38;;;;;;;;;;;31.00;36.50;;;;;;5055050;28;19913;-66
2023/10/04 09:55:05;;;;;;;;;;;30.90;35.40;;;;;;5054841;28;19916;-66
2023/10/04 09:57:35;;;;;;;;;;;30.90;34.70;;;;;;5055406;28;19909;-67
2023/10/04 10:00:01;;;;;;;;;;;31.30;34.70;;;;;;5055469;28;20266;-67
2023/10/04 10:02:34;;;;;;;;;;;30.80;32.70;;;;;;5054838;28;19908;-67
2023/10/04 10:05:01;;;;;;;;;;;30.50;35.10;;;;;;5055002;28;19962;-66
2023/10/04 10:07:31;;;;;;;;;;;30.90;35.40;;;;;;5055174;28;19913;-66
2023/10/04 10:10:16;;;;;;;;;;;30.40;35.10;;;;;;5055396;28;19908;-67
2023/10/04 10:12:46;;;;;;;;;;;30.30;33.90;;;;;;5054914;28;20259;-66
2023/10/04 10:15:13;;;;;;;;;;;29.40;36.90;;;;;;5054105;28;20419;-66
2023/10/04 10:17:40;;;;;;;;;;;30.40;36.00;;;;;;5055124;28;19966;-67
2023/10/04 10:20:09;;;;;;;;;;;29.80;36.30;;;;;;5055194;28;19908;-67
2023/10/04 10:22:55;;;;;;;;;;;30.50;34.00;;;;;;5056943;28;19936;-66
2023/10/04 10:25:22;;;;;;;;;;;29.80;34.20;;;;;;5058940;28;19975;-66
2023/10/04 10:27:48;;;;;;;;;;;30.10;34.30;;;;;;5058867;28;19920;-66
2023/10/04 10:30:16;;;;;;;;;;;30.40;33.70;;;;;;5058712;28;19908;-66
2023/10/04 10:32:49;;;;;;;;;;;30.00;34.40;;;;;;5058769;28;19908;-66
2023/10/04 10:35:34;;;;;;;;;;;30.00;32.50;;;;;;5059233;28;19916;-67
2023/10/04 10:38:26;;;;;;;;;;;28.40;34.70;;;;;;5059107;28;20266;-66
2023/10/04 10:40:52;;;;;;;;;;;28.80;35.60;;;;;;5058817;28;19913;-66
2023/10/04 10:43:18;;;;;;;;;;;28.40;34.60;;;;;;5058489;28;20335;-66
2023/10/04 10:45:44;;;;;;;;;;;29.10;36.20;;;;;;5058816;28;20003;-66
2023/10/04 10:48:13;;;;;;;;;;;28.60;34.40;;;;;;5058932;28;19948;-66
2023/10/04 10:50:42;;;;;;;;;;;28.60;34.20;;;;;;5048161;28;19909;-66
2023/10/04 10:53:11;;;;;;;;;;;29.30;35.20;;;;;;5057758;28;19908;-66
2023/10/04 10:55:40;;;;;;;;;;;29.90;32.30;;;;;;5058513;28;20338;-66
2023/10/04 10:58:07;;;;;;;;;;;29.90;32.90;;;;;;5058157;28;19913;-66
2023/10/04 11:00:35;;;;;;;;;;;29.30;34.00;;;;;;5058301;28;20363;-67
2023/10/04 11:03:01;;;;;;;;;;;29.80;32.20;;;;;;5058237;28;19908;-67
2023/10/04 11:05:27;;;;;;;;;;;30.10;31.90;;;;;;5057686;28;19958;-66
2023/10/04 11:07:54;;;;;;;;;;;30.40;30.80;;;;;;5056547;28;19920;-67
2023/10/04 11:10:23;;;;;;;;;;;30.30;32.00;;;;;;5057559;28;20267;-66
2023/10/04 11:12:55;;;;;;;;;;;29.50;32.70;;;;;;5057981;28;19909;-67
2023/10/04 11:15:23;;;;;;;;;;;29.80;32.40;;;;;;5058208;28;19909;-67
2023/10/04 11:17:50;;;;;;;;;;;27.30;34.40;;;;;;5057634;28;19913;-66
2023/10/04 11:20:21;;;;;;;;;;;28.30;34.50;;;;;;5057953;28;20270;-66
2023/10/04 11:22:49;;;;;;;;;;;28.50;33.10;;;;;;5058071;28;20246;-67
2023/10/04 11:25:15;;;;;;;;;;;27.90;34.60;;;;;;5058098;28;19991;-66
2023/10/04 11:27:43;;;;;;;;;;;27.70;35.10;;;;;;5057440;28;19908;-67
2023/10/04 11:30:10;;;;;;;;;;;28.70;37.80;;;;;;5057071;28;19970;-66
2023/10/04 11:32:39;;;;;;;;;;;29.90;34.40;;;;;;5057613;28;20004;-66
2023/10/04 11:35:09;;;;;;;;;;;29.40;32.30;;;;;;5056707;28;19931;-66
2023/10/04 11:37:41;;;;;;;;;;;30.00;32.40;;;;;;5057470;28;20360;-66
2023/10/04 11:40:11;;;;;;;;;;;29.70;31.20;;;;;;5057368;28;19908;-66
2023/10/04 11:42:38;;;;;;;;;;;28.00;32.60;;;;;;5057903;28;19967;-66
2023/10/04 11:45:16;;;;;;;;;;;28.50;34.70;;;;;;5058017;28;19916;-65
2023/10/04 11:47:43;;;;;;;;;;;29.20;32.00;;;;;;5057877;28;19909;-65
2023/10/04 11:50:10;;;;;;;;;;;29.50;32.40;;;;;;5057812;28;20366;-65
2023/10/04 11:52:36;;;;;;;;;;;29.80;32.00;;;;;;5057616;28;19908;-66
2023/10/04 11:55:04;;;;;;;;;;;29.60;31.70;;;;;;5057444;28;19909;-65
2023/10/04 11:57:37;;;;;;;;;;;30.00;29.90;;;;;;5057574;28;19912;-64
2023/10/04 12:00:21;;;;;;;;;;;30.40;29.30;;;;;;5057736;28;20335;-64
2023/10/04 12:02:47;;;;;;;;;;;30.10;29.70;;;;;;5057529;28;19908;-65
2023/10/04 12:05:13;;;;;;;;;;;29.80;29.50;;;;;;5056255;28;19915;-64
2023/10/04 12:07:39;;;;;;;;;;;29.30;30.80;;;;;;5055981;28;19919;-63
2023/10/04 12:10:06;;;;;;;;;;;28.70;32.50;;;;;;5057091;28;19909;-64
2023/10/04 12:12:32;;;;;;;;;;;27.90;33.30;;;;;;5055979;28;19916;-64
2023/10/04 12:14:58;;;;;;;;;;;28.00;35.40;;;;;;5057010;28;19919;-64
2023/10/04 12:17:24;;;;;;;;;;;27.80;35.00;;;;;;5056562;28;19913;-63
2023/10/04 12:19:50;;;;;;;;;;;27.90;35.20;;;;;;5056726;28;20290;-64
2023/10/04 12:22:18;;;;;;;;;;;28.00;34.50;;;;;;5056772;28;19915;-63
2023/10/04 12:24:45;;;;;;;;;;;27.90;34.80;;;;;;5056780;28;20453;-64
2023/10/04 12:27:15;;;;;;;;;;;27.80;34.20;;;;;;5056628;28;19908;-64
2023/10/04 12:29:40;;;;;;;;;;;27.70;35.30;;;;;;5056708;28;19909;-64
2023/10/04 12:32:07;;;;;;;;;;;27.90;37.90;;;;;;5055734;28;20408;-64
2023/10/04 12:34:33;;;;;;;;;;;27.70;35.00;;;;;;5056440;28;19909;-64
2023/10/04 12:37:02;;;;;;;;;;;27.70;34.90;;;;;;5055107;28;19908;-64
2023/10/04 12:39:28;;;;;;;;;;;28.70;34.90;;;;;;5056526;28;19912;-64
2023/10/04 12:42:00;;;;;;;;;;;29.10;33.80;;;;;;5056136;28;19997;-64
2023/10/04 12:44:26;;;;;;;;;;;29.30;35.00;;;;;;5056173;28;19936;-64
2023/10/04 12:46:53;;;;;;;;;;;29.20;33.60;;;;;;5056387;28;19904;-65
2023/10/04 12:49:19;;;;;;;;;;;29.60;32.70;;;;;;5056301;28;19989;-64
2023/10/04 12:51:48;;;;;;;;;;;29.20;32.70;;;;;;5056468;28;20004;-65
2023/10/04 12:54:16;;;;;;;;;;;28.60;31.10;;;;;;5055900;28;20003;-64
2023/10/04 12:56:42;;;;;;;;;;;28.80;34.30;;;;;;5056116;28;19909;-64
2023/10/04 12:59:08;;;;;;;;;;;29.00;34.20;;;;;;5056128;28;19927;-64
2023/10/04 13:01:34;;;;;;;;;;;28.00;31.70;;;;;;5056258;28;19908;-64
2023/10/04 13:04:07;;;;;;;;;;;27.70;33.60;;;;;;5055684;28;19912;-64
2023/10/04 13:06:36;;;;;;;;;;;27.40;33.70;;;;;;5056088;28;20067;-64
2023/10/04 13:09:03;;;;;;;;;;;27.70;32.80;;;;;;5056035;28;19905;-64
2023/10/04 13:11:30;;;;;;;;;;;27.20;32.60;;;;;;5055839;28;19905;-64
2023/10/04 13:13:56;;;;;;;;;;;28.00;33.20;;;;;;5056207;28;19956;-64
2023/10/04 13:16:22;;;;;;;;;;;28.10;31.80;;;;;;5055540;28;20312;-64
2023/10/04 13:18:48;;;;;;;;;;;28.70;32.50;;;;;;5055951;28;19913;-64
2023/10/04 13:21:18;;;;;;;;;;;28.60;31.20;;;;;;5055792;28;19916;-64
2023/10/04 13:23:44;;;;;;;;;;;28.30;30.00;;;;;;5055413;28;20369;-64
2023/10/04 13:26:10;;;;;;;;;;;28.30;31.10;;;;;;5055807;28;20374;-64
2023/10/04 13:28:36;;;;;;;;;;;28.50;30.10;;;;;;5055733;28;19931;-64
2023/10/04 13:31:02;;;;;;;;;;;27.90;32.00;;;;;;5055828;28;20010;-64
2023/10/04 13:33:29;;;;;;;;;;;28.20;30.10;;;;;;5055375;28;20400;-64
2023/10/04 13:35:55;;;;;;;;;;;28.40;30.90;;;;;;5056043;28;19909;-64
2023/10/04 13:38:22;;;;;;;;;;;28.80;30.00;;;;;;5055635;28;19919;-64
2023/10/04 13:40:49;;;;;;;;;;;28.50;29.70;;;;;;5055674;28;19913;-64
2023/10/04 13:43:15;;;;;;;;;;;27.80;30.20;;;;;;5055670;28;20270;-64
2023/10/04 13:45:43;;;;;;;;;;;27.90;30.60;;;;;;5055501;28;19912;-64
2023/10/04 13:48:09;;;;;;;;;;;27.10;29.90;;;;;;5055649;28;19954;-64
2023/10/04 13:50:37;;;;;;;;;;;26.80;32.20;;;;;;5055556;28;19908;-64
2023/10/04 13:53:03;;;;;;;;;;;27.00;33.70;;;;;;5055641;28;19912;-64
2023/10/04 13:55:29;;;;;;;;;;;26.90;31.40;;;;;;5055501;28;19909;-64
2023/10/04 13:57:56;;;;;;;;;;;27.10;32.40;;;;;;5058640;28;19920;-64
2023/10/04 14:00:22;;;;;;;;;;;26.70;31.70;;;;;;5079913;28;19919;-64
2023/10/04 14:02:49;;;;;;;;;;;26.70;32.20;;;;;;5079483;28;19919;-64
2023/10/04 14:05:18;;;;;;;;;;;26.70;31.70;;;;;;5079347;28;19930;-64
2023/10/04 14:07:53;;;;;;;;;;;26.90;32.60;;;;;;5079422;28;19919;-64
2023/10/04 14:10:23;;;;;;;;;;;27.10;32.10;;;;;;5079452;28;19916;-64
2023/10/04 14:12:52;;;;;;;;;;;27.30;30.70;;;;;;5079225;28;20006;-63
2023/10/04 14:15:22;;;;;;;;;;;27.30;30.70;;;;;;5079343;28;19913;-64
2023/10/04 14:17:49;;;;;;;;;;;27.30;31.80;;;;;;5079196;28;19938;-63
2023/10/04 14:20:16;;;;;;;;;;;27.10;30.10;;;;;;5079131;28;20006;-63